Flight Track Log - Related Links

Times and Time Zones

All times are in EDT time to prevent confusion due to time zone crossing. See the N296 flight status page for this flight to view local times or setup timezone preferences in your user account.

Time Position Orientation Groundspeed Altitude Reporting Facility
EDT Latitude Longitude Course Direction KTS MPH feet Rate Location/Type
Mon 07:53:05 PM 29.8597 -93.0022 263° West 152 175 8,400  Level Houston Center
Mon 07:54:07 PM 29.8553 -93.0528 264° West 153 176 8,500  Climbing Houston Center
Mon 07:55:09 PM 29.8514 -93.1033 265° West 154 177 8,400  Descending Houston Center
Mon 07:56:11 PM 29.8478 -93.1531 265° West 155 178 8,500  Climbing Houston Center
Mon 07:57:00 PM 30.1617 -93.3785 263° West  Level FlightAware Approximate
Mon 07:57:09 PM 29.8428 -93.2050 264° West 155 178 8,400  Level Houston Center
Mon 07:58:00 PM 30.1571 -93.4197 263° West  Level FlightAware Approximate
Mon 07:58:15 PM 29.8397 -93.2625 267° West 155 178 8,400  Level Houston Center
Mon 07:58:46 PM 29.8367 -93.2853 261° West 158 182 8,500 97 Climbing Houston Center
Mon 07:59:17 PM 29.8364 -93.3125 269° West 155 178 8,500  Level Houston Center
Mon 07:59:41 PM 29.8336 -93.3342 262° West 153 176 8,500 -98 Level Houston Center
Mon 08:00:18 PM 29.8317 -93.3597 265° West 155 178 8,400  Descending Houston Center
Mon 08:00:48 PM 29.8289 -93.3878 263° West 154 177 8,500  Climbing Houston Center
Mon 08:01:20 PM 29.8281 -93.4100 268° West 155 178 8,400  Descending Houston Center
Mon 08:01:37 PM 29.8247 -93.4294 259° West 157 181 8,500 97 Climbing Houston Center
Mon 08:02:22 PM 29.8239 -93.4597 268° West 155 178 8,500  Level Houston Center
Mon 08:02:44 PM 29.8219 -93.4828 264° West 152 175 8,500 -97 Level Houston Center
Mon 08:03:24 PM 29.8211 -93.5078 268° West 155 178 8,400  Descending Houston Center
Mon 08:03:45 PM 29.8167 -93.5319 258° West 156 180 8,500 97 Climbing Houston Center
Mon 08:04:26 PM 29.8167 -93.5581 270° West 155 178 8,500  Level Houston Center
Mon 08:04:46 PM 29.8136 -93.5828 262° West 155 178 8,500 -97 Level Houston Center
Mon 08:05:28 PM 29.8122 -93.6167 267° West 155 178 8,400 98 Descending Houston Center
Mon 08:05:47 PM 29.8103 -93.6292 260° West 153 176 8,600  Climbing Houston Center
Mon 08:06:30 PM 29.8081 -93.6656 266° West 155 178 8,400 -98 Descending Houston Center
Mon 08:06:48 PM 29.8050 -93.6806 257° West 153 176 8,500  Climbing Houston Center
Mon 08:07:32 PM 29.8042 -93.7133 268° West 155 178 8,400  Descending Houston Center
Mon 08:07:49 PM 29.8019 -93.7317 262° West 153 176 8,500 167 Climbing Houston Center
Mon 08:08:44 PM 29.7981 -93.7756 264° West 151 174 8,600 -57 Climbing Houston Center
Mon 08:09:35 PM 29.7972 -93.8114 268° West 153 176 8,400 -53 Descending Houston Center
Mon 08:10:37 PM 29.7928 -93.8600 264° West 153 176 8,500  Climbing Houston Center
Mon 08:11:39 PM 29.7881 -93.9092 264° West 154 177 8,400  Descending Houston Center
Mon 08:12:41 PM 29.7836 -93.9669 265° West 154 177 8,500  Climbing Houston Center
Mon 08:13:43 PM 29.7797 -94.0147 265° West 153 176 8,400 -48 Descending Houston Center
Mon 08:14:45 PM 29.7756 -94.0625 264° West 153 176 8,400 47 Level Houston Center
Mon 08:15:51 PM 29.7703 -94.1192 264° West 152 175 8,500  Climbing Houston Center
Mon 08:16:52 PM 29.7647 -94.1706 263° West 156 180 8,400 -50 Descending Houston Center
Mon 08:17:50 PM 29.7544 -94.2167 256° West 156 180 8,400  Level Houston Center
Mon 08:18:52 PM 29.7394 -94.2614 249° West 151 174 8,400  Level Houston Center
Mon 08:19:55 PM 29.7203 -94.3136 247° West 157 181 8,400 48 Level Houston Center
Mon 08:20:56 PM 29.7039 -94.3592 248° West 153 176 8,500  Climbing Houston Center
Mon 08:21:58 PM 29.6906 -94.3994 249° West 157 181 8,400 -49 Descending Houston Center
Mon 08:22:58 PM 29.6689 -94.4503 244° Southwest 158 182 8,400  Level Houston Center
Mon 08:24:00 PM 29.6461 -94.4989 242° Southwest 160 184 8,400  Level Houston Center
Mon 08:25:00 PM 29.6256 -94.5450 243° Southwest 164 189 8,400 49 Level Houston Center
Mon 08:26:02 PM 29.6072 -94.5931 246° West 159 183 8,500 47 Climbing Houston Center
Mon 08:27:07 PM 29.5878 -94.6378 243° Southwest 159 183 8,500  Level Houston Center
Mon 08:28:08 PM 29.5697 -94.6828 245° Southwest 159 183 8,500  Level Houston Center
Mon 08:29:04 PM 29.5489 -94.7303 243° Southwest 158 182 8,500 -51 Level Houston Center
Mon 08:30:05 PM 29.5306 -94.7781 246° West 160 184 8,400 -49 Descending Houston Center
Mon 08:31:06 PM 29.5142 -94.8258 248° West 162 186 8,400 49 Level Houston Center
Mon 08:32:07 PM 29.4978 -94.8758 249° West 159 183 8,500  Climbing Houston Center
Mon 08:33:08 PM 29.4814 -94.9236 249° West 162 186 8,400  Descending Houston Center
Mon 08:34:09 PM 29.4669 -94.9711 251° West 157 181 8,500 85 Climbing Houston Center
Mon 08:34:19 PM 29.4650 -94.9756 243° Southwest 160 184 8,500 -98 Level Houston Center
Mon 08:35:10 PM 29.4483 -95.0189 246° West 160 184 8,400 -98 Descending Houston Center
Mon 08:35:20 PM 29.4478 -95.0228 261° West 160 184 8,400  Level Houston Center
Mon 08:36:10 PM 29.4319 -95.0667 248° West 159 183 8,400  Level Houston Center
Mon 08:36:22 PM 29.4303 -95.0700 240° Southwest 160 184 8,400  Level Houston Center
Mon 08:37:11 PM 29.4131 -95.1119 245° Southwest 158 182 8,400  Level Houston Center
Mon 08:37:24 PM 29.4131 -95.1164 270° West 160 184 8,400 98 Level Houston Center
Mon 08:38:12 PM 29.3967 -95.1597 247° West 156 180 8,500 98 Climbing Houston Center
Mon 08:38:25 PM 29.3956 -95.1619 240° Southwest 159 183 8,500  Level Houston Center
Mon 08:39:13 PM 29.3778 -95.2075 246° West 161 185 8,500  Level Houston Center
Mon 08:39:27 PM 29.3781 -95.2089 283° West 159 183 8,500 -98 Level Houston Center
Mon 08:40:14 PM 29.3611 -95.2528 246° West 158 182 8,400 -98 Descending Houston Center
Mon 08:40:28 PM 29.3608 -95.2553 263° West 159 183 8,400 82 Level Houston Center
Mon 08:41:27 PM 29.3369 -95.3108 244° Southwest 161 185 8,500  Climbing Houston Center
Mon 08:42:21 PM 29.3197 -95.3511 244° Southwest 165 190 8,400  Descending Houston Center
Mon 08:42:31 PM 29.3167 -95.3581 243° Southwest 163 188 8,500  Climbing Houston Center
Mon 08:43:22 PM 29.3014 -95.4014 248° West 160 184 8,400  Descending Houston Center
Mon 08:43:33 PM 29.2994 -95.4050 238° Southwest 161 185 8,500  Climbing Houston Center
Mon 08:44:23 PM 29.2825 -95.4467 245° Southwest 161 185 8,400  Descending Houston Center
Mon 08:44:35 PM 29.2817 -95.4517 259° West 161 185 8,500 82 Climbing Houston Center
Mon 08:45:36 PM 29.2633 -95.4983 246° West 161 185 8,500 -49 Level Houston Center
Mon 08:46:38 PM 29.2436 -95.5464 245° Southwest 162 186 8,400 -49 Descending Houston Center
Mon 08:47:39 PM 29.2281 -95.5944 250° West 162 186 8,400 49 Level Houston Center
Mon 08:48:41 PM 29.2100 -95.6419 246° West 162 186 8,500  Climbing Houston Center
Mon 08:49:42 PM 29.1925 -95.6911 248° West 164 189 8,400 -49 Descending Houston Center
Mon 08:50:44 PM 29.1739 -95.7500 250° West 166 191 8,400  Level Houston Center
Mon 08:51:45 PM 29.1572 -95.7986 249° West 166 191 8,400 49 Level Houston Center
Mon 08:52:47 PM 29.1394 -95.8450 246° West 165 190 8,500 49 Climbing Houston Center
Mon 08:53:48 PM 29.1256 -95.8933 252° West 163 188 8,500 -49 Level Houston Center
Mon 08:54:50 PM 29.1064 -95.9419 246° West 164 189 8,400  Descending Houston Center
Mon 08:55:51 PM 29.0878 -95.9864 244° Southwest 165 190 8,500  Climbing Houston Center
Mon 08:56:53 PM 29.0744 -96.0481 256° West 165 190 8,400  Descending Houston Center
Mon 08:57:54 PM 29.0564 -96.0969 247° West 166 191 8,500 49 Climbing Houston Center
Mon 08:58:55 PM 29.0281 -96.1369 231° Southwest 169 194 8,500 -49 Level Houston Center
Mon 08:59:57 PM 29.0197 -96.1897 260° West 171 197 8,400 -49 Descending Houston Center
Mon 09:00:58 PM 29.0239 -96.2406 275° West 165 190 8,400 49 Level Houston Center
Mon 09:02:00 PM 29.0158 -96.2914 260° West 164 189 8,500 49 Climbing Houston Center
Mon 09:03:01 PM 29.0094 -96.3414 262° West 164 189 8,500 -49 Level Houston Center
Mon 09:04:03 PM 29.0081 -96.3906 268° West 158 182 8,400 -49 Descending Houston Center
Mon 09:05:04 PM 29.0100 -96.4414 273° West 158 182 8,400  Level Houston Center
Mon 09:06:06 PM 29.0114 -96.5008 272° West 158 182 8,400 49 Level Houston Center
Mon 09:07:07 PM 28.9950 -96.5486 249° West 158 182 8,500  Climbing Houston Center
Mon 09:08:09 PM 28.9744 -96.5928 242° Southwest 159 183 8,400  Descending Houston Center
Mon 09:09:10 PM 28.9550 -96.6375 244° Southwest 158 182 8,500 49 Climbing Houston Center
Mon 09:10:12 PM 28.9353 -96.6811 243° Southwest 158 182 8,500 -49 Level Houston Center
Mon 09:11:13 PM 28.9136 -96.7269 242° Southwest 159 183 8,400  Descending Houston Center
Mon 09:12:14 PM 28.8889 -96.7708 237° Southwest 162 186 8,500  Climbing Houston Center
Mon 09:13:16 PM 28.8631 -96.8131 235° Southwest 162 186 8,400  Descending Houston Center
Mon 09:14:17 PM 28.8356 -96.8569 234° Southwest 165 190 8,500  Climbing Houston Center
Mon 09:15:19 PM 28.8122 -96.9117 244° Southwest 163 188 8,400 -49 Descending Houston Center
Mon 09:16:20 PM 28.7925 -96.9578 244° Southwest 162 186 8,400 49 Level Houston Center
Mon 09:17:22 PM 28.7683 -97.0008 237° Southwest 162 186 8,500  Climbing Houston Center
Mon 09:18:23 PM 28.7406 -97.0436 233° Southwest 163 188 8,400  Descending Houston Center
Mon 09:19:25 PM 28.7142 -97.0878 236° Southwest 167 192 8,500  Climbing Houston Center
Mon 09:20:26 PM 28.6961 -97.1347 246° West 166 191 8,400 -49 Descending Houston Center
Mon 09:21:28 PM 28.6800 -97.1844 250° West 165 190 8,400  Level Houston Center
Mon 09:22:29 PM 28.6656 -97.2347 252° West 166 191 8,400  Level Houston Center
Mon 09:23:31 PM 28.6528 -97.2836 253° West 164 189 8,400 49 Level Houston Center
Mon 09:24:32 PM 28.6592 -97.3419 277° West 154 177 8,500  Climbing Houston Center
Mon 09:25:33 PM 28.6658 -97.3908 279° West 156 180 8,400 -49 Descending Houston Center
Mon 09:26:35 PM 28.6603 -97.4447 263° West 169 194 8,400 49 Level Houston Center
Mon 09:27:36 PM 28.6469 -97.4947 253° West 169 194 8,500 49 Climbing Houston Center
Mon 09:28:38 PM 28.6361 -97.5472 257° West 169 194 8,500  Level Houston Center
Mon 09:29:39 PM 28.6367 -97.5994 271° West 167 192 8,500 -49 Level Houston Center
Mon 09:30:41 PM 28.6217 -97.6478 251° West 164 189 8,400  Descending Houston Center
Mon 09:31:42 PM 28.6064 -97.6939 249° West 159 183 8,500 49 Climbing Houston Center
Mon 09:32:44 PM 28.5822 -97.7506 244° Southwest 162 186 8,500 -49 Level Houston Center
Mon 09:33:45 PM 28.5686 -97.7986 252° West 160 184 8,400 -98 Descending Houston Center
Mon 09:34:47 PM 28.5878 -97.8425 296° West 150 173 8,300 -390 Descending Houston Center
Mon 09:35:48 PM 28.6097 -97.8917 297° West 171 197 7,600 -732 Descending Houston Center
Mon 09:36:50 PM 28.6408 -97.9397 306° West 187 215 6,800 -732 Descending Houston Center
Mon 09:37:51 PM 28.6839 -97.9681 356° North 178 205 6,100 -634 Descending Houston Center
Mon 09:38:00 PM 28.6938 -97.9435 356° North  Level FlightAware Approximate
Mon 09:38:53 PM 28.7231 -98.0006 324° Northwest 171 197 5,500  Level Houston Center
Mon 09:39:28 PM 28.7436 -98.0183 323° Northwest 175 201 5,500 -369 Level Houston Center
Mon 09:39:58 PM 28.7683 -98.0367 327° Northwest 178 205 5,100 -360 Descending Houston Center
Mon 09:41:58 PM 28.8481 -98.0975 12° North 166 191 4,600 -273 Descending Houston Center
Mon 09:42:54 PM 28.8839 -98.1250 326° Northwest 166 191 4,300 -359 Descending Houston Center
Mon 09:43:55 PM 28.9225 -98.1561 325° Northwest 172 198 3,900 -470 Descending Houston Center
Mon 09:44:49 PM 28.9611 -98.1847 327° Northwest 176 203 3,400 -537 Descending Houston Center
Mon 09:45:02 PM 28.9714 -98.1908 333° Northwest 172 198 3,300 -492 Descending Houston Center
Mon 09:45:50 PM 29.0017 -98.2156 324° Northwest 179 206 2,900 -393 Descending Houston Center
Mon 09:46:03 PM 29.0119 -98.2231 327° Northwest 176 203 2,900 -200 Level Houston Center
Mon 09:46:50 PM 29.0403 -98.2444 327° Northwest 164 189 2,700 -290 Descending Houston Center
Mon 09:47:05 PM 29.0483 -98.2511 324° Northwest 161 185 2,600 -393 Descending Houston Center
Mon 09:47:51 PM 29.0744 -98.2736 323° Northwest 153 176 2,300 -492 Descending Houston Center
Mon 09:48:06 PM 29.0864 -98.2817 329° Northwest 159 183 2,100 -492 Descending Houston Center
Mon 09:48:52 PM 29.1128 -98.3025 325° Northwest 159 183 1,800 -113 Descending Houston Center
Mon 09:49:52 PM 29.1514 -98.3314 327° Northwest 154 177 1,900  Climbing Houston Center
Mon 09:50:09 PM 29.1578 -98.3367 324° Northwest 149 171 1,800 -295 Descending Houston Center
Mon 09:50:53 PM 29.1850 -98.3536 331° Northwest 139 160 1,600 -295 Descending Houston Center
Mon 09:51:10 PM 29.1925 -98.3594 326° Northwest 146 168 1,500 -90 Descending Houston Center
Mon 09:52:00 PM 29.2208 -98.3781 330° Northwest 140 161 1,500 -97 Level Houston Center
Mon 09:52:12 PM 29.2286 -98.3828 332° Northwest 143 165 1,400  Descending Houston Center
Mon 09:53:00 PM 29.2519 -98.3981 330° Northwest 134 154 1,500 98 Climbing Houston Center
Mon 09:53:13 PM 29.2606 -98.4039 329° Northwest 137 158 1,500  Level Houston Center
Mon 09:53:49 PM 29.2772 -98.4214 318° Northwest 132 152 1,500 -98 Level Houston Center
Mon 09:54:14 PM 29.2889 -98.4308 325° Northwest 135 155 1,400 -200 Descending Houston Center
Mon 09:54:49 PM 29.3022 -98.4425 323° Northwest 106 122 1,300 -290 Descending Houston Center
Mon 09:55:16 PM 29.3131 -98.4506 327° Northwest 103 119 1,100 -273 Descending Houston Center
Mon 09:56:17 PM 29.3294 -98.4619 329° Northwest 94 108 900 -197 Descending Houston Center
Mon 09:58:00 PM 29.3333 -98.4667 326° Northwest  Level FlightAware Approximate
Mon 10:05:00 PM 29.3370 -98.4710 314° West  Level Estimated

Login

Don't have an account? Register now (free) for customized features, flight alerts, and more!